»·PEaware :: N602CN KSAN-KPSP

N602CN :: KSAN-KPSP

FLIGHT INFORMATION

Flight Status: Arrived
Operator: Privately registered:
United States
More flights under this callsign
Pilot: Henderson P. (1210)
Aircraft: BEECH AIRCRAFT SUPER KING AIR COMMUTER
(BE20)
More flights by this aircraft type
Origin: KSAN San Diego Intl-Lindbergh
United States
Destination: KPSP Palm Springs Intl
United States
More flights between these airports :: More routes between these airports
Route: JLI V208 TRM
File this flight plan on PilotEdge
Remarks:
Altitude:
(Current/Filed)
13,000ft
Speed:
(Current/Filed)
274kts
Departed: 29-Oct-19 03:50 PM
Arrived: 29-Oct-19 04:22 PM
Distance/Time
Traveled:
74nm/0:32
Distance/Time
To Go:
Arrived

Flight Plot

Page will automatically refresh every two minutes.


Map Options




Map Legend


Flown Route
Filed Route
Departure Airport
Arrival Airport
Navaid (VOR, NDB)
Fix

Horizontal Profiles

Position Reports

Time Latitude Longitude Heading Altitude Ground
Speed
29-Oct-19 15:35 32.733804 -117.178926 140 19ft 0kts
29-Oct-19 15:36 32.733804 -117.178926 140 19ft 0kts
29-Oct-19 15:37 32.733804 -117.178926 140 19ft 0kts
29-Oct-19 15:38 32.733804 -117.178926 140 19ft 0kts
29-Oct-19 15:39 32.733802 -117.178924 140 19ft 0kts
29-Oct-19 15:40 32.733800 -117.178922 140 19ft 0kts
29-Oct-19 15:41 32.733797 -117.178920 140 19ft 0kts
29-Oct-19 15:42 32.733795 -117.178917 140 19ft 0kts
29-Oct-19 15:43 32.733792 -117.178915 140 19ft 0kts
29-Oct-19 15:44 32.733790 -117.178912 140 19ft 0kts
29-Oct-19 15:45 32.733787 -117.178910 140 19ft 0kts
29-Oct-19 15:46 32.733667 -117.179006 274 19ft 5kts
29-Oct-19 15:47 32.732734 -117.178440 105 19ft 18kts
29-Oct-19 15:48 32.730963 -117.175511 141 19ft 0kts
29-Oct-19 15:50 32.730624 -117.177614 284 19ft 47kts
29-Oct-19 15:51 32.741189 -117.211967 298 1289ft 155kts
29-Oct-19 15:52 32.765069 -117.256838 301 3821ft 166kts
29-Oct-19 15:53 32.792649 -117.299341 341 6371ft 167kts
29-Oct-19 15:54 32.833462 -117.269784 40 8637ft 187kts
29-Oct-19 15:55 32.865261 -117.217409 59 10542ft 215kts
29-Oct-19 15:56 32.894016 -117.150973 55 12161ft 230kts
29-Oct-19 15:57 32.925811 -117.079919 56 13003ft 267kts
29-Oct-19 15:58 32.961958 -116.997604 57 13001ft 289kts
29-Oct-19 15:59 32.999325 -116.911631 57 12999ft 294kts
29-Oct-19 16:00 33.037042 -116.824870 57 12996ft 295kts
29-Oct-19 16:01 33.074487 -116.737704 57 12993ft 296kts
29-Oct-19 16:02 33.112783 -116.650384 57 12988ft 297kts
29-Oct-19 16:03 33.154976 -116.567375 36 13077ft 285kts
29-Oct-19 16:04 33.219556 -116.513144 26 13059ft 283kts
29-Oct-19 16:05 33.284846 -116.460600 29 13031ft 285kts
29-Oct-19 16:06 33.349083 -116.404732 30 13010ft 285kts
29-Oct-19 16:07 33.413253 -116.348516 29 12999ft 285kts
29-Oct-19 16:07 33.467022 -116.302360 29 12993ft 285kts
29-Oct-19 16:09 33.530728 -116.245528 28 12985ft 283kts
29-Oct-19 16:10 33.594359 -116.189835 25 12979ft 281kts
29-Oct-19 16:10 33.648612 -116.188838 332 12424ft 223kts
29-Oct-19 16:11 33.702480 -116.218635 330 10959ft 209kts
29-Oct-19 16:13 33.762065 -116.264591 314 8106ft 223kts
29-Oct-19 16:13 33.796170 -116.310656 312 6467ft 219kts
29-Oct-19 16:14 33.835740 -116.365274 311 4667ft 211kts
29-Oct-19 16:15 33.868702 -116.410612 311 3270ft 207kts
29-Oct-19 16:17 33.911867 -116.471289 306 1599ft 199kts
29-Oct-19 16:17 33.904833 -116.517293 234 1508ft 165kts
29-Oct-19 16:18 33.878970 -116.545434 165 1432ft 91kts
29-Oct-19 16:19 33.857215 -116.532180 141 1086ft 94kts
29-Oct-19 16:20 33.835118 -116.512505 142 505ft 95kts
29-Oct-19 16:21 33.823641 -116.501270 64 481ft 13kts
29-Oct-19 16:22 33.824615 -116.498704 53 481ft 0kts
29-Oct-19 16:23 33.824616 -116.498703 53 481ft 0kts
29-Oct-19 16:24 33.824616 -116.498703 53 481ft 0kts
29-Oct-19 16:25 33.824616 -116.498703 53 481ft 0kts
29-Oct-19 16:26 33.824616 -116.498703 53 481ft 0kts
29-Oct-19 16:27 33.824616 -116.498703 53 481ft 0kts
29-Oct-19 16:28 33.824616 -116.498703 53 481ft 0kts
29-Oct-19 16:29 33.824616 -116.498703 53 481ft 0kts
29-Oct-19 16:30 33.824616 -116.498703 53 481ft 0kts
29-Oct-19 16:31 33.824616 -116.498703 53 481ft 0kts
29-Oct-19 16:32 33.824616 -116.498703 53 481ft 0kts
29-Oct-19 16:33 33.824616 -116.498703 53 481ft 0kts
29-Oct-19 16:34 33.824616 -116.498703 53 481ft 0kts
29-Oct-19 16:35 33.824616 -116.498703 53 481ft 0kts
29-Oct-19 16:36 33.824616 -116.498703 53 481ft 0kts

Navigation Log

Ident Type
Flight plan parsing failed, navigation log unavailable